sensor_id;sensor_type;location;lat;lon;timestamp;pressure;altitude;pressure_sealevel;temperature;humidity
2549;BME280;1284;53.520;10.248;2023-05-27T00:02:13;102219.72;;;14.46;76.25
2549;BME280;1284;53.520;10.248;2023-05-27T00:04:38;102220.19;;;14.36;76.33
2549;BME280;1284;53.520;10.248;2023-05-27T00:07:04;102215.22;;;14.26;77.15
2549;BME280;1284;53.520;10.248;2023-05-27T00:09:29;102215.22;;;14.38;76.59
2549;BME280;1284;53.520;10.248;2023-05-27T00:11:55;102219.06;;;14.37;76.22
2549;BME280;1284;53.520;10.248;2023-05-27T00:14:20;102219.31;;;14.20;77.03
2549;BME280;1284;53.520;10.248;2023-05-27T00:16:47;102216.25;;;14.22;77.14
2549;BME280;1284;53.520;10.248;2023-05-27T00:19:15;102213.53;;;14.22;77.08
2549;BME280;1284;53.520;10.248;2023-05-27T00:21:42;102215.44;;;14.21;77.38
2549;BME280;1284;53.520;10.248;2023-05-27T00:24:08;102223.38;;;14.14;77.71
2549;BME280;1284;53.520;10.248;2023-05-27T00:26:33;102213.44;;;14.18;77.24
2549;BME280;1284;53.520;10.248;2023-05-27T00:28:59;102216.34;;;14.13;77.53
2549;BME280;1284;53.520;10.248;2023-05-27T00:31:25;102208.22;;;14.13;77.38
2549;BME280;1284;53.520;10.248;2023-05-27T00:33:51;102217.16;;;14.14;77.02
2549;BME280;1284;53.520;10.248;2023-05-27T00:36:17;102214.09;;;13.79;78.62
2549;BME280;1284;53.520;10.248;2023-05-27T00:38:43;102218.97;;;13.86;79.00
2549;BME280;1284;53.520;10.248;2023-05-27T00:41:10;102220.19;;;13.88;78.80
2549;BME280;1284;53.520;10.248;2023-05-27T00:43:37;102212.41;;;13.87;78.46
2549;BME280;1284;53.520;10.248;2023-05-27T00:46:02;102214.00;;;13.88;78.93
2549;BME280;1284;53.520;10.248;2023-05-27T00:48:28;102214.31;;;13.86;78.94
2549;BME280;1284;53.520;10.248;2023-05-27T00:50:54;102213.53;;;13.98;77.75
2549;BME280;1284;53.520;10.248;2023-05-27T00:53:20;102204.63;;;13.97;77.79
2549;BME280;1284;53.520;10.248;2023-05-27T00:55:47;102202.38;;;13.87;78.31
2549;BME280;1284;53.520;10.248;2023-05-27T00:58:13;102200.00;;;13.86;78.88
2549;BME280;1284;53.520;10.248;2023-05-27T01:00:38;102200.34;;;13.72;79.01
2549;BME280;1284;53.520;10.248;2023-05-27T01:03:07;102201.25;;;13.76;78.28
2549;BME280;1284;53.520;10.248;2023-05-27T01:05:33;102203.25;;;13.67;79.30
2549;BME280;1284;53.520;10.248;2023-05-27T01:08:21;102208.78;;;13.71;78.61
2549;BME280;1284;53.520;10.248;2023-05-27T01:10:53;102215.22;;;13.66;79.08
2549;BME280;1284;53.520;10.248;2023-05-27T01:15:59;102205.41;;;13.74;78.60
2549;BME280;1284;53.520;10.248;2023-05-27T01:18:27;102204.97;;;13.72;78.68
2549;BME280;1284;53.520;10.248;2023-05-27T01:21:00;102206.66;;;13.64;78.95
2549;BME280;1284;53.520;10.248;2023-05-27T01:23:28;102204.59;;;13.49;79.61
2549;BME280;1284;53.520;10.248;2023-05-27T01:28:19;102200.06;;;13.41;79.40
2549;BME280;1284;53.520;10.248;2023-05-27T01:30:45;102206.41;;;13.45;79.56
2549;BME280;1284;53.520;10.248;2023-05-27T01:33:22;102200.38;;;13.39;79.98
2549;BME280;1284;53.520;10.248;2023-05-27T01:35:59;102209.63;;;13.38;79.71
2549;BME280;1284;53.520;10.248;2023-05-27T01:41:12;102205.06;;;13.51;79.30
2549;BME280;1284;53.520;10.248;2023-05-27T01:43:39;102202.06;;;13.32;80.00
2549;BME280;1284;53.520;10.248;2023-05-27T01:46:06;102197.56;;;13.24;79.99
2549;BME280;1284;53.520;10.248;2023-05-27T01:48:31;102196.66;;;13.32;80.10
2549;BME280;1284;53.520;10.248;2023-05-27T01:50:57;102189.88;;;13.26;80.13
2549;BME280;1284;53.520;10.248;2023-05-27T01:53:22;102190.31;;;13.16;80.13
2549;BME280;1284;53.520;10.248;2023-05-27T01:55:48;102202.34;;;13.18;80.22
2549;BME280;1284;53.520;10.248;2023-05-27T01:58:14;102201.50;;;13.26;79.64
2549;BME280;1284;53.520;10.248;2023-05-27T02:00:39;102191.00;;;13.25;80.03
2549;BME280;1284;53.520;10.248;2023-05-27T02:03:05;102186.28;;;13.22;79.76
2549;BME280;1284;53.520;10.248;2023-05-27T02:05:31;102181.47;;;13.07;80.03
2549;BME280;1284;53.520;10.248;2023-05-27T02:07:56;102191.06;;;13.04;80.51
2549;BME280;1284;53.520;10.248;2023-05-27T02:10:24;102189.31;;;13.00;81.02
2549;BME280;1284;53.520;10.248;2023-05-27T02:12:50;102186.03;;;12.94;81.43
2549;BME280;1284;53.520;10.248;2023-05-27T02:15:15;102188.84;;;12.98;80.89
2549;BME280;1284;53.520;10.248;2023-05-27T02:17:42;102181.88;;;12.97;80.91
2549;BME280;1284;53.520;10.248;2023-05-27T02:20:11;102188.94;;;12.89;81.61
2549;BME280;1284;53.520;10.248;2023-05-27T02:22:36;102186.31;;;12.81;81.34
2549;BME280;1284;53.520;10.248;2023-05-27T02:25:05;102182.34;;;12.78;81.81
2549;BME280;1284;53.520;10.248;2023-05-27T02:27:31;102182.09;;;12.71;81.66
2549;BME280;1284;53.520;10.248;2023-05-27T02:29:56;102190.81;;;12.77;81.76
2549;BME280;1284;53.520;10.248;2023-05-27T02:32:22;102189.72;;;12.90;81.39
2549;BME280;1284;53.520;10.248;2023-05-27T02:34:47;102185.78;;;12.87;81.08
2549;BME280;1284;53.520;10.248;2023-05-27T02:37:13;102186.66;;;12.58;80.99
2549;BME280;1284;53.520;10.248;2023-05-27T02:39:40;102187.78;;;12.57;82.23
2549;BME280;1284;53.520;10.248;2023-05-27T02:42:06;102180.38;;;12.66;81.72
2549;BME280;1284;53.520;10.248;2023-05-27T02:44:32;102192.34;;;12.65;81.77
2549;BME280;1284;53.520;10.248;2023-05-27T02:46:57;102186.84;;;12.53;82.00
2549;BME280;1284;53.520;10.248;2023-05-27T02:49:23;102190.16;;;12.38;82.46
2549;BME280;1284;53.520;10.248;2023-05-27T02:51:48;102193.03;;;12.33;82.83
2549;BME280;1284;53.520;10.248;2023-05-27T02:54:17;102190.47;;;12.37;83.07
2549;BME280;1284;53.520;10.248;2023-05-27T02:56:42;102189.09;;;12.31;83.29
2549;BME280;1284;53.520;10.248;2023-05-27T02:59:08;102189.50;;;12.41;82.21
2549;BME280;1284;53.520;10.248;2023-05-27T03:01:33;102181.59;;;12.36;82.63
2549;BME280;1284;53.520;10.248;2023-05-27T03:03:59;102193.72;;;12.51;82.46
2549;BME280;1284;53.520;10.248;2023-05-27T03:06:24;102185.00;;;12.45;82.52
2549;BME280;1284;53.520;10.248;2023-05-27T03:08:50;102185.47;;;12.47;82.51
2549;BME280;1284;53.520;10.248;2023-05-27T03:11:15;102189.44;;;12.50;82.29
2549;BME280;1284;53.520;10.248;2023-05-27T03:13:41;102187.19;;;12.52;82.68
2549;BME280;1284;53.520;10.248;2023-05-27T03:16:06;102188.19;;;12.47;81.74
2549;BME280;1284;53.520;10.248;2023-05-27T03:18:32;102193.44;;;12.44;82.67
2549;BME280;1284;53.520;10.248;2023-05-27T03:20:57;102190.88;;;12.47;82.65
2549;BME280;1284;53.520;10.248;2023-05-27T03:23:23;102193.44;;;12.44;83.09
2549;BME280;1284;53.520;10.248;2023-05-27T03:25:49;102192.66;;;12.43;82.85
2549;BME280;1284;53.520;10.248;2023-05-27T03:28:14;102185.53;;;12.39;82.74
2549;BME280;1284;53.520;10.248;2023-05-27T03:30:41;102198.25;;;12.38;83.17
2549;BME280;1284;53.520;10.248;2023-05-27T03:33:16;102195.81;;;12.45;82.83
2549;BME280;1284;53.520;10.248;2023-05-27T03:35:41;102193.91;;;12.46;82.62
2549;BME280;1284;53.520;10.248;2023-05-27T03:38:07;102188.09;;;12.35;83.28
2549;BME280;1284;53.520;10.248;2023-05-27T03:40:33;102184.47;;;12.31;83.57
2549;BME280;1284;53.520;10.248;2023-05-27T03:42:59;102193.97;;;12.37;83.76
2549;BME280;1284;53.520;10.248;2023-05-27T03:45:25;102199.81;;;12.19;83.39
2549;BME280;1284;53.520;10.248;2023-05-27T03:47:52;102193.41;;;12.23;83.61
2549;BME280;1284;53.520;10.248;2023-05-27T03:50:19;102196.66;;;12.17;84.25
2549;BME280;1284;53.520;10.248;2023-05-27T03:52:46;102183.28;;;12.20;83.91
2549;BME280;1284;53.520;10.248;2023-05-27T03:55:11;102186.91;;;12.24;83.39
2549;BME280;1284;53.520;10.248;2023-05-27T03:57:37;102190.66;;;12.11;84.32
2549;BME280;1284;53.520;10.248;2023-05-27T04:00:02;102192.66;;;12.23;84.45
2549;BME280;1284;53.520;10.248;2023-05-27T04:02:35;102195.34;;;12.23;85.06
2549;BME280;1284;53.520;10.248;2023-05-27T04:05:01;102200.22;;;12.29;85.01
2549;BME280;1284;53.520;10.248;2023-05-27T04:07:27;102201.34;;;12.28;85.08
2549;BME280;1284;53.520;10.248;2023-05-27T04:09:52;102204.50;;;12.30;84.40
2549;BME280;1284;53.520;10.248;2023-05-27T04:12:18;102202.59;;;12.31;84.30
2549;BME280;1284;53.520;10.248;2023-05-27T04:14:43;102200.50;;;12.36;84.35
2549;BME280;1284;53.520;10.248;2023-05-27T04:17:09;102197.72;;;12.45;84.78
2549;BME280;1284;53.520;10.248;2023-05-27T04:19:34;102210.25;;;12.49;84.79
2549;BME280;1284;53.520;10.248;2023-05-27T04:22:01;102206.25;;;12.55;84.64
2549;BME280;1284;53.520;10.248;2023-05-27T04:24:26;102197.91;;;12.60;84.40
2549;BME280;1284;53.520;10.248;2023-05-27T04:26:52;102184.88;;;12.62;84.56
2549;BME280;1284;53.520;10.248;2023-05-27T04:29:18;102190.28;;;12.62;84.71
2549;BME280;1284;53.520;10.248;2023-05-27T04:31:44;102193.25;;;12.69;84.25
2549;BME280;1284;53.520;10.248;2023-05-27T04:34:14;102196.16;;;12.64;84.60
2549;BME280;1284;53.520;10.248;2023-05-27T04:36:40;102194.88;;;12.62;85.13
2549;BME280;1284;53.520;10.248;2023-05-27T04:39:09;102199.53;;;12.61;85.13
2549;BME280;1284;53.520;10.248;2023-05-27T04:41:38;102192.78;;;12.67;84.78
2549;BME280;1284;53.520;10.248;2023-05-27T04:44:25;102194.50;;;12.72;85.06
2549;BME280;1284;53.520;10.248;2023-05-27T04:46:56;102199.13;;;12.72;85.47
2549;BME280;1284;53.520;10.248;2023-05-27T04:49:25;102195.34;;;12.85;85.38
2549;BME280;1284;53.520;10.248;2023-05-27T04:51:51;102192.09;;;12.91;85.08
2549;BME280;1284;53.520;10.248;2023-05-27T04:54:19;102190.13;;;13.00;84.57
2549;BME280;1284;53.520;10.248;2023-05-27T04:56:46;102187.16;;;13.14;84.70
2549;BME280;1284;53.520;10.248;2023-05-27T04:59:19;102196.59;;;13.08;84.28
2549;BME280;1284;53.520;10.248;2023-05-27T05:01:47;102183.44;;;13.18;84.67
2549;BME280;1284;53.520;10.248;2023-05-27T05:04:39;102186.13;;;13.18;84.05
2549;BME280;1284;53.520;10.248;2023-05-27T05:07:04;102191.94;;;13.41;84.06
2549;BME280;1284;53.520;10.248;2023-05-27T05:09:32;102190.59;;;13.59;83.98
2549;BME280;1284;53.520;10.248;2023-05-27T05:12:07;102183.53;;;13.91;83.87
2549;BME280;1284;53.520;10.248;2023-05-27T05:14:37;102192.66;;;14.10;82.45
2549;BME280;1284;53.520;10.248;2023-05-27T05:17:03;102189.56;;;14.48;81.12
2549;BME280;1284;53.520;10.248;2023-05-27T05:19:28;102186.09;;;14.75;80.61
2549;BME280;1284;53.520;10.248;2023-05-27T05:21:54;102183.88;;;14.93;78.90
2549;BME280;1284;53.520;10.248;2023-05-27T05:24:20;102192.94;;;15.12;78.81
2549;BME280;1284;53.520;10.248;2023-05-27T05:26:45;102192.06;;;15.52;77.74
2549;BME280;1284;53.520;10.248;2023-05-27T05:29:11;102188.72;;;15.58;75.88
2549;BME280;1284;53.520;10.248;2023-05-27T05:31:36;102189.06;;;15.72;74.35
2549;BME280;1284;53.520;10.248;2023-05-27T05:34:03;102191.59;;;15.96;74.15
2549;BME280;1284;53.520;10.248;2023-05-27T05:36:31;102195.78;;;16.09;74.65
2549;BME280;1284;53.520;10.248;2023-05-27T05:39:04;102209.81;;;16.11;73.34
2549;BME280;1284;53.520;10.248;2023-05-27T05:41:30;102201.25;;;16.28;73.31
2549;BME280;1284;53.520;10.248;2023-05-27T05:43:55;102202.19;;;16.36;72.64
2549;BME280;1284;53.520;10.248;2023-05-27T05:46:21;102196.91;;;16.59;73.16
2549;BME280;1284;53.520;10.248;2023-05-27T05:48:47;102207.19;;;16.69;71.76
2549;BME280;1284;53.520;10.248;2023-05-27T05:51:18;102200.19;;;16.68;71.06
2549;BME280;1284;53.520;10.248;2023-05-27T05:53:47;102206.34;;;16.84;70.46
2549;BME280;1284;53.520;10.248;2023-05-27T05:56:13;102206.78;;;17.05;70.26
2549;BME280;1284;53.520;10.248;2023-05-27T05:58:39;102202.81;;;17.02;69.94
2549;BME280;1284;53.520;10.248;2023-05-27T06:01:05;102202.72;;;17.18;69.98
2549;BME280;1284;53.520;10.248;2023-05-27T06:03:36;102204.81;;;17.25;68.57
2549;BME280;1284;53.520;10.248;2023-05-27T06:06:03;102210.97;;;17.44;69.17
2549;BME280;1284;53.520;10.248;2023-05-27T06:08:31;102217.38;;;17.33;68.38
2549;BME280;1284;53.520;10.248;2023-05-27T06:11:04;102207.19;;;17.49;69.08
2549;BME280;1284;53.520;10.248;2023-05-27T06:13:32;102201.75;;;17.49;68.78
2549;BME280;1284;53.520;10.248;2023-05-27T06:16:01;102200.41;;;17.62;70.07
2549;BME280;1284;53.520;10.248;2023-05-27T06:18:28;102213.47;;;17.75;69.50
2549;BME280;1284;53.520;10.248;2023-05-27T06:20:54;102204.38;;;17.90;69.33
2549;BME280;1284;53.520;10.248;2023-05-27T06:23:22;102204.06;;;17.95;69.40
2549;BME280;1284;53.520;10.248;2023-05-27T06:26:20;102212.31;;;17.99;69.55
2549;BME280;1284;53.520;10.248;2023-05-27T06:28:49;102219.53;;;18.14;69.03
2549;BME280;1284;53.520;10.248;2023-05-27T06:31:15;102206.56;;;18.34;68.64
2549;BME280;1284;53.520;10.248;2023-05-27T06:33:41;102213.81;;;18.49;67.36
2549;BME280;1284;53.520;10.248;2023-05-27T06:36:07;102215.38;;;18.46;66.33
2549;BME280;1284;53.520;10.248;2023-05-27T06:38:33;102217.72;;;18.48;66.43
2549;BME280;1284;53.520;10.248;2023-05-27T06:40:58;102214.25;;;18.51;64.96
2549;BME280;1284;53.520;10.248;2023-05-27T06:43:24;102208.09;;;18.31;66.64
2549;BME280;1284;53.520;10.248;2023-05-27T06:45:56;102213.81;;;18.49;66.58
2549;BME280;1284;53.520;10.248;2023-05-27T06:48:44;102204.38;;;18.43;65.65
2549;BME280;1284;53.520;10.248;2023-05-27T06:51:11;102200.31;;;18.59;65.30
2549;BME280;1284;53.520;10.248;2023-05-27T06:53:36;102202.44;;;17.91;66.91
2549;BME280;1284;53.520;10.248;2023-05-27T06:56:07;102198.09;;;18.13;67.68
2549;BME280;1284;53.520;10.248;2023-05-27T06:58:59;102190.06;;;18.49;68.00
2549;BME280;1284;53.520;10.248;2023-05-27T07:01:25;102201.66;;;18.72;66.82
2549;BME280;1284;53.520;10.248;2023-05-27T07:03:59;102197.59;;;18.92;66.45
2549;BME280;1284;53.520;10.248;2023-05-27T07:06:42;102187.22;;;19.09;66.07
2549;BME280;1284;53.520;10.248;2023-05-27T07:09:09;102201.19;;;19.33;65.95
2549;BME280;1284;53.520;10.248;2023-05-27T07:11:36;102205.66;;;19.55;62.64
2549;BME280;1284;53.520;10.248;2023-05-27T07:14:06;102201.75;;;19.53;61.92
2549;BME280;1284;53.520;10.248;2023-05-27T07:16:34;102199.44;;;19.55;63.20
2549;BME280;1284;53.520;10.248;2023-05-27T07:19:01;102203.47;;;19.71;62.80
2549;BME280;1284;53.520;10.248;2023-05-27T07:21:30;102204.06;;;20.02;60.47
2549;BME280;1284;53.520;10.248;2023-05-27T07:23:56;102203.09;;;20.27;59.64
2549;BME280;1284;53.520;10.248;2023-05-27T07:26:33;102204.78;;;20.53;58.87
2549;BME280;1284;53.520;10.248;2023-05-27T07:29:00;102197.28;;;20.36;58.82
2549;BME280;1284;53.520;10.248;2023-05-27T07:31:35;102200.78;;;20.36;59.08
2549;BME280;1284;53.520;10.248;2023-05-27T07:34:07;102187.22;;;19.93;59.88
2549;BME280;1284;53.520;10.248;2023-05-27T07:36:33;102187.44;;;20.21;61.76
2549;BME280;1284;53.520;10.248;2023-05-27T07:39:00;102200.88;;;20.54;60.45
2549;BME280;1284;53.520;10.248;2023-05-27T07:41:25;102194.31;;;20.73;59.98
2549;BME280;1284;53.520;10.248;2023-05-27T07:43:52;102183.47;;;21.04;57.36
2549;BME280;1284;53.520;10.248;2023-05-27T07:46:18;102187.78;;;21.05;56.06
2549;BME280;1284;53.520;10.248;2023-05-27T07:48:43;102190.84;;;21.00;57.24
2549;BME280;1284;53.520;10.248;2023-05-27T07:51:10;102186.16;;;20.94;56.12
2549;BME280;1284;53.520;10.248;2023-05-27T07:53:35;102186.25;;;21.25;55.84
2549;BME280;1284;53.520;10.248;2023-05-27T07:56:01;102190.19;;;21.42;55.99
2549;BME280;1284;53.520;10.248;2023-05-27T07:58:26;102178.81;;;21.40;53.03
2549;BME280;1284;53.520;10.248;2023-05-27T08:01:11;102181.19;;;21.55;53.68
2549;BME280;1284;53.520;10.248;2023-05-27T08:03:42;102179.63;;;21.65;54.71
2549;BME280;1284;53.520;10.248;2023-05-27T08:06:31;102176.88;;;21.62;54.51
2549;BME280;1284;53.520;10.248;2023-05-27T08:09:15;102169.03;;;21.88;54.43
2549;BME280;1284;53.520;10.248;2023-05-27T08:12:09;102163.09;;;22.18;53.38
2549;BME280;1284;53.520;10.248;2023-05-27T08:14:48;102168.81;;;22.55;52.01
2549;BME280;1284;53.520;10.248;2023-05-27T08:17:20;102157.81;;;22.66;50.00
2549;BME280;1284;53.520;10.248;2023-05-27T08:20:06;102161.25;;;22.80;51.87
2549;BME280;1284;53.520;10.248;2023-05-27T08:22:53;102159.16;;;23.05;50.07
2549;BME280;1284;53.520;10.248;2023-05-27T08:25:30;102157.69;;;22.87;49.02
2549;BME280;1284;53.520;10.248;2023-05-27T08:28:06;102155.56;;;22.39;50.25
2549;BME280;1284;53.520;10.248;2023-05-27T08:30:46;102157.09;;;22.44;49.92
2549;BME280;1284;53.520;10.248;2023-05-27T08:33:19;102154.91;;;22.00;50.73
2549;BME280;1284;53.520;10.248;2023-05-27T08:35:45;102155.31;;;21.71;51.29
2549;BME280;1284;53.520;10.248;2023-05-27T08:38:11;102147.88;;;21.71;52.75
2549;BME280;1284;53.520;10.248;2023-05-27T08:40:39;102146.72;;;21.83;53.41
2549;BME280;1284;53.520;10.248;2023-05-27T08:43:08;102143.94;;;21.97;52.21
2549;BME280;1284;53.520;10.248;2023-05-27T08:45:41;102138.38;;;22.18;50.91
2549;BME280;1284;53.520;10.248;2023-05-27T08:48:09;102128.03;;;22.57;50.28
2549;BME280;1284;53.520;10.248;2023-05-27T08:50:37;102135.97;;;22.37;49.67
2549;BME280;1284;53.520;10.248;2023-05-27T08:53:03;102132.16;;;21.96;49.34
2549;BME280;1284;53.520;10.248;2023-05-27T08:55:30;102123.19;;;21.89;51.00
2549;BME280;1284;53.520;10.248;2023-05-27T08:57:57;102133.75;;;22.01;50.90
2549;BME280;1284;53.520;10.248;2023-05-27T09:00:29;102123.50;;;22.12;51.67
2549;BME280;1284;53.520;10.248;2023-05-27T09:03:12;102121.16;;;22.07;52.74
2549;BME280;1284;53.520;10.248;2023-05-27T09:05:37;102121.97;;;22.04;51.43
2549;BME280;1284;53.520;10.248;2023-05-27T09:08:03;102128.94;;;22.22;51.00
2549;BME280;1284;53.520;10.248;2023-05-27T09:10:36;102112.41;;;22.40;50.83
2549;BME280;1284;53.520;10.248;2023-05-27T09:13:01;102116.97;;;22.71;50.33
2549;BME280;1284;53.520;10.248;2023-05-27T09:15:27;102113.94;;;22.48;48.76
2549;BME280;1284;53.520;10.248;2023-05-27T09:17:53;102117.41;;;22.66;49.64
2549;BME280;1284;53.520;10.248;2023-05-27T09:20:24;102120.56;;;22.61;46.73
2549;BME280;1284;53.520;10.248;2023-05-27T09:22:56;102110.88;;;22.28;47.56
2549;BME280;1284;53.520;10.248;2023-05-27T09:25:23;102112.28;;;22.68;49.58
2549;BME280;1284;53.520;10.248;2023-05-27T09:27:49;102110.50;;;22.99;49.05
2549;BME280;1284;53.520;10.248;2023-05-27T09:30:14;102110.69;;;23.25;47.23
2549;BME280;1284;53.520;10.248;2023-05-27T09:32:40;102118.03;;;23.43;46.29
2549;BME280;1284;53.520;10.248;2023-05-27T09:35:06;102113.31;;;23.43;46.67
2549;BME280;1284;53.520;10.248;2023-05-27T09:37:33;102112.69;;;23.21;48.18
2549;BME280;1284;53.520;10.248;2023-05-27T09:40:04;102105.38;;;23.04;47.03
2549;BME280;1284;53.520;10.248;2023-05-27T09:42:47;102106.53;;;23.07;47.23
2549;BME280;1284;53.520;10.248;2023-05-27T09:45:17;102106.91;;;23.05;48.24
2549;BME280;1284;53.520;10.248;2023-05-27T09:47:50;102106.56;;;23.00;48.65
2549;BME280;1284;53.520;10.248;2023-05-27T09:50:16;102102.69;;;22.97;48.18
2549;BME280;1284;53.520;10.248;2023-05-27T09:52:43;102102.94;;;23.13;48.07
2549;BME280;1284;53.520;10.248;2023-05-27T09:55:11;102100.41;;;23.37;48.47
2549;BME280;1284;53.520;10.248;2023-05-27T09:57:38;102097.41;;;23.65;48.06
2549;BME280;1284;53.520;10.248;2023-05-27T10:00:09;102101.84;;;23.52;45.97
2549;BME280;1284;53.520;10.248;2023-05-27T10:02:41;102096.94;;;23.70;44.79
2549;BME280;1284;53.520;10.248;2023-05-27T10:05:08;102089.03;;;23.38;45.91
2549;BME280;1284;53.520;10.248;2023-05-27T10:07:37;102088.91;;;23.49;45.63
2549;BME280;1284;53.520;10.248;2023-05-27T10:10:08;102086.47;;;23.54;46.58
2549;BME280;1284;53.520;10.248;2023-05-27T10:12:36;102077.47;;;23.87;46.03
2549;BME280;1284;53.520;10.248;2023-05-27T10:15:02;102083.38;;;24.23;45.70
2549;BME280;1284;53.520;10.248;2023-05-27T10:17:46;102085.25;;;24.60;45.09
2549;BME280;1284;53.520;10.248;2023-05-27T10:20:11;102084.06;;;25.11;44.21
2549;BME280;1284;53.520;10.248;2023-05-27T10:22:45;102080.78;;;24.96;42.62
2549;BME280;1284;53.520;10.248;2023-05-27T10:25:12;102075.13;;;25.03;41.84
2549;BME280;1284;53.520;10.248;2023-05-27T10:27:47;102073.53;;;25.05;42.45
2549;BME280;1284;53.520;10.248;2023-05-27T10:30:14;102070.28;;;25.11;42.39
2549;BME280;1284;53.520;10.248;2023-05-27T10:32:53;102080.47;;;25.60;42.45
2549;BME280;1284;53.520;10.248;2023-05-27T10:35:19;102073.63;;;25.87;42.50
2549;BME280;1284;53.520;10.248;2023-05-27T10:37:46;102075.56;;;26.10;41.38
2549;BME280;1284;53.520;10.248;2023-05-27T10:40:12;102077.22;;;26.04;40.53
2549;BME280;1284;53.520;10.248;2023-05-27T10:42:38;102070.31;;;26.16;41.87
2549;BME280;1284;53.520;10.248;2023-05-27T10:45:05;102072.00;;;26.10;41.86
2549;BME280;1284;53.520;10.248;2023-05-27T10:47:34;102070.88;;;25.68;40.72
2549;BME280;1284;53.520;10.248;2023-05-27T10:50:09;102066.56;;;25.44;40.45
2549;BME280;1284;53.520;10.248;2023-05-27T10:52:37;102061.13;;;25.17;42.01
2549;BME280;1284;53.520;10.248;2023-05-27T10:55:04;102059.97;;;24.91;42.69
2549;BME280;1284;53.520;10.248;2023-05-27T11:00:18;102057.63;;;24.90;43.68
2549;BME280;1284;53.520;10.248;2023-05-27T11:02:46;102046.00;;;24.52;44.14
2549;BME280;1284;53.520;10.248;2023-05-27T11:05:15;102051.22;;;24.43;44.77
2549;BME280;1284;53.520;10.248;2023-05-27T11:07:41;102045.19;;;24.25;44.93
2549;BME280;1284;53.520;10.248;2023-05-27T11:12:53;102042.75;;;24.84;43.48
2549;BME280;1284;53.520;10.248;2023-05-27T11:15:19;102046.84;;;24.46;44.11
2549;BME280;1284;53.520;10.248;2023-05-27T11:17:44;102047.09;;;24.28;44.45
2549;BME280;1284;53.520;10.248;2023-05-27T11:20:10;102035.91;;;24.12;45.03
2549;BME280;1284;53.520;10.248;2023-05-27T11:22:35;102030.81;;;24.10;44.78
2549;BME280;1284;53.520;10.248;2023-05-27T11:25:03;102033.31;;;24.58;43.85
2549;BME280;1284;53.520;10.248;2023-05-27T11:27:38;102030.69;;;24.21;45.15
2549;BME280;1284;53.520;10.248;2023-05-27T11:30:08;102036.94;;;24.25;44.61
2549;BME280;1284;53.520;10.248;2023-05-27T11:32:39;102032.78;;;24.40;44.33
2549;BME280;1284;53.520;10.248;2023-05-27T11:35:13;102020.84;;;24.20;43.88
2549;BME280;1284;53.520;10.248;2023-05-27T11:37:38;102008.06;;;24.33;43.77
2549;BME280;1284;53.520;10.248;2023-05-27T11:40:10;102009.06;;;24.46;42.69
2549;BME280;1284;53.520;10.248;2023-05-27T11:42:36;102008.66;;;24.74;42.67
2549;BME280;1284;53.520;10.248;2023-05-27T11:45:01;102006.81;;;24.91;42.18
2549;BME280;1284;53.520;10.248;2023-05-27T11:47:32;102001.06;;;25.25;43.20
2549;BME280;1284;53.520;10.248;2023-05-27T11:49:57;101998.00;;;25.42;42.13
2549;BME280;1284;53.520;10.248;2023-05-27T11:52:24;101997.47;;;25.70;41.26
2549;BME280;1284;53.520;10.248;2023-05-27T11:54:51;101986.03;;;25.88;41.32
2549;BME280;1284;53.520;10.248;2023-05-27T11:57:17;101997.56;;;26.03;40.58
2549;BME280;1284;53.520;10.248;2023-05-27T11:59:42;101991.41;;;25.95;39.11
2549;BME280;1284;53.520;10.248;2023-05-27T12:02:07;101981.78;;;26.03;40.28
2549;BME280;1284;53.520;10.248;2023-05-27T12:04:33;101973.72;;;26.28;39.74
2549;BME280;1284;53.520;10.248;2023-05-27T12:06:59;101975.41;;;26.06;40.02
2549;BME280;1284;53.520;10.248;2023-05-27T12:09:26;101967.09;;;25.70;39.35
2549;BME280;1284;53.520;10.248;2023-05-27T12:11:52;101969.69;;;25.77;40.42
2549;BME280;1284;53.520;10.248;2023-05-27T12:14:17;101962.72;;;26.09;40.46
2549;BME280;1284;53.520;10.248;2023-05-27T12:16:43;101962.13;;;26.17;40.17
2549;BME280;1284;53.520;10.248;2023-05-27T12:19:08;101953.13;;;26.13;39.67
2549;BME280;1284;53.520;10.248;2023-05-27T12:21:37;101953.44;;;25.99;39.89
2549;BME280;1284;53.520;10.248;2023-05-27T12:24:02;101954.72;;;25.94;41.12
2549;BME280;1284;53.520;10.248;2023-05-27T12:26:29;101939.44;;;25.90;40.87
2549;BME280;1284;53.520;10.248;2023-05-27T12:28:54;101936.72;;;25.70;40.78
2549;BME280;1284;53.520;10.248;2023-05-27T12:31:21;101934.38;;;25.69;40.48
2549;BME280;1284;53.520;10.248;2023-05-27T12:33:48;101935.56;;;25.29;40.83
2549;BME280;1284;53.520;10.248;2023-05-27T12:36:13;101924.03;;;24.94;41.28
2549;BME280;1284;53.520;10.248;2023-05-27T12:38:40;101920.56;;;24.90;41.41
2549;BME280;1284;53.520;10.248;2023-05-27T12:41:06;101922.88;;;24.92;40.74
2549;BME280;1284;53.520;10.248;2023-05-27T12:43:31;101918.78;;;25.00;41.46
2549;BME280;1284;53.520;10.248;2023-05-27T12:45:57;101916.13;;;25.16;41.98
2549;BME280;1284;53.520;10.248;2023-05-27T12:48:23;101914.56;;;25.15;41.65
2549;BME280;1284;53.520;10.248;2023-05-27T12:50:48;101908.63;;;24.74;40.82
2549;BME280;1284;53.520;10.248;2023-05-27T12:53:14;101906.13;;;24.83;40.82
2549;BME280;1284;53.520;10.248;2023-05-27T12:55:39;101892.91;;;24.94;41.38
2549;BME280;1284;53.520;10.248;2023-05-27T12:58:05;101899.72;;;25.09;41.23
2549;BME280;1284;53.520;10.248;2023-05-27T13:00:31;101899.78;;;25.05;40.79
2549;BME280;1284;53.520;10.248;2023-05-27T13:02:56;101885.09;;;25.12;40.07
2549;BME280;1284;53.520;10.248;2023-05-27T13:05:22;101887.69;;;25.19;40.50
2549;BME280;1284;53.520;10.248;2023-05-27T13:10:25;101890.66;;;25.48;41.72
2549;BME280;1284;53.520;10.248;2023-05-27T13:12:50;101883.78;;;25.56;42.02
2549;BME280;1284;53.520;10.248;2023-05-27T13:15:16;101882.22;;;25.74;40.88
2549;BME280;1284;53.520;10.248;2023-05-27T13:17:45;101878.59;;;25.77;42.31
2549;BME280;1284;53.520;10.248;2023-05-27T13:20:12;101872.09;;;25.68;42.30
2549;BME280;1284;53.520;10.248;2023-05-27T13:22:38;101869.03;;;25.82;40.60